Time;durP1;ratioP1;P1;durP2;ratioP2;P2;SDS_P1;SDS_P2;PMS_P1;PMS_P2;Temp;Humidity;BMP_temperature;BMP_pressure;BME280_temperature;BME280_humidity;BME280_pressure;Samples;Min_cycle;Max_cycle;Signal;HPM_P1;HPM_P2
2024/04/04 00:14:29;;;;;;;7.70;6.60;;;;;;;5.65;71.19;100375.19;106838;1312;22537;-88
2024/04/04 01:13:21;;;;;;;6.90;6.00;;;;;;;5.75;72.29;100345.74;105784;1301;83232;-58
2024/04/04 01:15:47;;;;;;;7.70;6.70;;;;;;;5.77;72.45;100344.36;105652;1309;22652;-62
2024/04/04 01:18:12;;;;;;;9.10;6.20;;;;;;;5.78;72.01;100345.23;105539;1291;25429;-59
2024/04/04 01:20:37;;;;;;;12.10;6.90;;;;;;;5.79;72.13;100346.77;105643;1306;24215;-62
2024/04/04 01:23:03;;;;;;;10.80;7.00;;;;;;;5.78;72.33;100345.06;105814;1309;22572;-60
2024/04/04 01:25:28;;;;;;;8.80;6.80;;;;;;;5.78;72.35;100341.11;105762;1301;22607;-58
2024/04/04 01:27:54;;;;;;;7.70;6.40;;;;;;;5.77;72.71;100340.61;105546;1286;24016;-59
2024/04/04 01:30:19;;;;;;;7.20;6.50;;;;;;;5.76;72.50;100340.61;105708;1307;22624;-59
2024/04/04 01:32:45;;;;;;;7.10;6.40;;;;;;;5.76;73.55;100335.48;105698;1309;22550;-60
2024/04/04 01:35:10;;;;;;;6.80;6.20;;;;;;;5.76;73.08;100337.53;105352;1309;22513;-59
2024/04/04 01:37:38;;;;;;;7.70;6.00;;;;;;;5.77;72.72;100332.40;105667;1309;22541;-60
2024/04/04 01:40:06;;;;;;;8.50;6.80;;;;;;;5.76;73.00;100327.27;105638;1291;22599;-59
2024/04/04 01:42:32;;;;;;;8.70;6.80;;;;;;;5.75;73.16;100323.85;105731;1304;22519;-58
2024/04/04 01:44:57;;;;;;;9.10;6.80;;;;;;;5.75;73.26;100323.00;105618;1304;22644;-61
2024/04/04 01:47:23;;;;;;;9.50;7.30;;;;;;;5.75;73.29;100323.51;105400;1309;22513;-62
2024/04/04 01:49:48;;;;;;;8.80;7.00;;;;;;;5.73;73.58;100325.73;104070;1301;25516;-62
2024/04/04 01:52:13;;;;;;;10.00;6.80;;;;;;;5.73;73.29;100326.08;104079;1299;24756;-61
2024/04/04 01:54:39;;;;;;;8.20;6.90;;;;;;;5.73;72.92;100324.53;103905;1309;25694;-62
2024/04/04 01:57:05;;;;;;;12.80;7.90;;;;;;;5.72;73.47;100324.38;104063;1300;22565;-62
2024/04/04 01:59:30;;;;;;;8.90;7.60;;;;;;;5.70;73.44;100320.98;104055;1288;22561;-62
2024/04/04 02:01:56;;;;;;;8.00;7.20;;;;;;;5.68;73.44;100319.45;104055;1309;22554;-62
2024/04/04 02:04:21;;;;;;;9.10;7.60;;;;;;;5.67;73.41;100314.98;104064;1304;22551;-63
2024/04/04 02:06:46;;;;;;;9.10;8.10;;;;;;;5.65;73.96;100313.63;103917;1303;22548;-62
2024/04/04 02:09:12;;;;;;;13.60;7.70;;;;;;;5.63;73.57;100313.97;103861;1296;26640;-62
2024/04/04 02:11:37;;;;;;;10.40;8.00;;;;;;;5.63;73.65;100307.98;104041;1309;22550;-64
2024/04/04 02:14:03;;;;;;;7.70;7.00;;;;;;;5.62;73.55;100307.82;103848;1309;22589;-62
2024/04/04 02:16:29;;;;;;;9.00;7.80;;;;;;;5.62;73.54;100303.89;104002;1304;24745;-62
2024/04/04 02:18:55;;;;;;;10.50;7.10;;;;;;;5.61;73.65;100303.04;103768;1309;22555;-62
2024/04/04 02:21:20;;;;;;;8.60;7.80;;;;;;;5.61;73.45;100303.88;103960;1301;24348;-62
2024/04/04 02:23:45;;;;;;;8.80;7.80;;;;;;;5.60;73.50;100304.23;103818;1295;22686;-61
2024/04/04 02:26:11;;;;;;;10.30;8.40;;;;;;;5.59;73.71;100301.83;103885;1307;22641;-62
2024/04/04 02:28:36;;;;;;;10.20;7.60;;;;;;;5.60;73.91;100302.86;103811;1295;22664;-61
2024/04/04 02:31:02;;;;;;;10.50;8.10;;;;;;;5.60;74.02;100296.70;103739;1294;22584;-62
2024/04/04 02:33:28;;;;;;;9.10;7.90;;;;;;;5.60;73.52;100296.54;103880;1309;24752;-62
2024/04/04 02:35:56;;;;;;;9.30;8.20;;;;;;;5.60;73.84;100296.19;104040;1304;23894;-62
2024/04/04 02:38:22;;;;;;;15.00;8.00;;;;;;;5.58;73.97;100293.12;104137;1309;22553;-62
2024/04/04 02:40:49;;;;;;;9.10;8.00;;;;;;;5.59;73.87;100288.16;104104;1291;24208;-62
2024/04/04 02:43:18;;;;;;;9.00;8.10;;;;;;;5.59;73.82;100290.21;104251;1309;22803;-63
2024/04/04 02:45:47;;;;;;;10.20;8.50;;;;;;;5.59;73.76;100286.95;103849;1305;22750;-62
2024/04/04 02:48:13;;;;;;;12.90;8.30;;;;;;;5.59;73.86;100286.79;104021;1309;22626;-63
2024/04/04 02:50:39;;;;;;;10.10;8.40;;;;;;;5.59;73.81;100286.10;103795;1301;22570;-62
2024/04/04 02:53:05;;;;;;;10.70;9.20;;;;;;;5.60;73.84;100284.22;104170;1309;22931;-63
2024/04/04 02:55:33;;;;;;;12.30;9.20;;;;;;;5.62;74.25;100284.05;103815;1304;22560;-63
2024/04/04 02:57:58;;;;;;;9.70;8.60;;;;;;;5.64;74.17;100286.61;103796;1304;22620;-63
2024/04/04 03:00:24;;;;;;;11.30;8.40;;;;;;;5.64;74.09;100287.64;103801;1292;24008;-62
2024/04/04 03:02:49;;;;;;;12.30;9.00;;;;;;;5.68;73.67;100289.35;103826;1309;25495;-64
2024/04/04 03:05:15;;;;;;;11.60;9.60;;;;;;;5.69;74.21;100289.68;103825;1307;22585;-62
2024/04/04 03:07:40;;;;;;;10.20;8.50;;;;;;;5.70;74.09;100287.46;103891;1307;22566;-63
2024/04/04 03:10:06;;;;;;;10.40;9.30;;;;;;;5.73;74.15;100288.28;103831;1291;23304;-62
2024/04/04 03:12:32;;;;;;;14.70;10.20;;;;;;;5.75;74.27;100291.70;103819;1309;22557;-62
2024/04/04 03:14:58;;;;;;;11.30;9.60;;;;;;;5.78;74.33;100292.55;103872;1307;22583;-65
2024/04/04 03:17:23;;;;;;;10.90;9.70;;;;;;;5.80;74.29;100292.38;103827;1309;22644;-61
2024/04/04 03:19:48;;;;;;;10.10;9.10;;;;;;;5.83;74.30;100294.42;103830;1295;22554;-62
2024/04/04 03:22:14;;;;;;;17.70;9.60;;;;;;;5.83;74.23;100289.64;103718;1307;23976;-62
2024/04/04 03:24:39;;;;;;;13.90;9.80;;;;;;;5.84;74.43;100280.90;103607;1309;25400;-62
2024/04/04 03:27:06;;;;;;;11.60;10.30;;;;;;;5.86;74.31;100281.77;103848;1309;24731;-63
2024/04/04 03:29:31;;;;;;;13.50;10.60;;;;;;;5.86;74.09;100279.70;104135;1309;22560;-63
2024/04/04 03:31:57;;;;;;;12.30;10.20;;;;;;;5.84;74.26;100277.83;103797;1288;22558;-62
2024/04/04 03:34:22;;;;;;;15.30;11.20;;;;;;;5.83;74.62;100279.88;103938;1308;22562;-61
2024/04/04 03:36:48;;;;;;;12.80;10.30;;;;;;;5.83;74.31;100281.59;103870;1309;22759;-62
2024/04/04 03:39:14;;;;;;;12.60;10.50;;;;;;;5.83;74.71;100279.54;103990;1309;22551;-61
2024/04/04 03:41:39;;;;;;;14.90;10.70;;;;;;;5.83;75.63;100276.63;103844;1291;22571;-63
2024/04/04 03:44:05;;;;;;;14.30;11.10;;;;;;;5.83;75.42;100276.98;103835;1305;24262;-63
2024/04/04 03:46:31;;;;;;;14.60;12.20;;;;;;;5.84;75.66;100270.48;103821;1307;25504;-63
2024/04/04 03:48:57;;;;;;;14.40;12.40;;;;;;;5.84;75.57;100270.13;103822;1304;24427;-62
2024/04/04 03:51:22;;;;;;;14.60;12.10;;;;;;;5.85;75.40;100271.67;104009;1308;23265;-62
2024/04/04 03:53:48;;;;;;;16.10;12.30;;;;;;;5.86;75.34;100262.09;104082;1307;22560;-64
2024/04/04 03:56:13;;;;;;;17.10;12.20;;;;;;;5.87;75.53;100263.80;104026;1304;24252;-62
2024/04/04 03:58:38;;;;;;;15.20;11.50;;;;;;;5.89;75.48;100263.47;104043;1307;23074;-61
2024/04/04 04:01:04;;;;;;;15.40;12.60;;;;;;;5.89;75.54;100266.90;103971;1291;22784;-64
2024/04/04 04:03:29;;;;;;;15.40;12.00;;;;;;;5.91;75.75;100264.85;104044;1309;22555;-62
2024/04/04 04:05:55;;;;;;;13.60;11.00;;;;;;;5.91;75.78;100267.23;104021;1301;22570;-62
2024/04/04 04:08:20;;;;;;;16.30;12.10;;;;;;;5.93;76.24;100263.13;103997;1304;22933;-62
2024/04/04 04:10:46;;;;;;;16.50;12.10;;;;;;;5.94;75.93;100259.19;104038;1286;24255;-62
2024/04/04 04:13:13;;;;;;;16.20;12.00;;;;;;;5.94;76.04;100258.33;104002;1308;25600;-63
2024/04/04 04:15:38;;;;;;;16.60;11.80;;;;;;;5.95;76.08;100258.33;103995;1303;22683;-62
2024/04/04 04:18:04;;;;;;;13.00;11.50;;;;;;;5.95;76.34;100253.02;103614;1308;25371;-62
2024/04/04 04:23:14;;;;;;;16.10;12.00;;;;;;;5.95;76.50;100253.71;103872;1301;24458;-63
2024/04/04 04:25:39;;;;;;;14.00;11.70;;;;;;;5.95;76.31;100256.62;103842;1304;22727;-62
2024/04/04 04:28:06;;;;;;;17.50;12.20;;;;;;;5.96;77.24;100258.67;103825;1307;24427;-61
2024/04/04 04:30:31;;;;;;;14.80;12.30;;;;;;;5.97;76.88;100262.60;103830;1304;22548;-61
2024/04/04 04:32:56;;;;;;;15.70;12.80;;;;;;;5.98;76.57;100262.26;103768;1291;22556;-62
2024/04/04 04:35:23;;;;;;;15.80;13.00;;;;;;;5.99;77.98;100257.81;103887;1303;23050;-63
2024/04/04 04:37:49;;;;;;;16.20;14.40;;;;;;;5.99;77.71;100259.35;104175;1300;25442;-60
2024/04/04 04:40:15;;;;;;;18.10;13.80;;;;;;;5.98;78.19;100254.39;103883;1304;24193;-60
2024/04/04 04:42:40;;;;;;;16.10;13.80;;;;;;;5.98;78.14;100256.27;103797;1291;22594;-64
2024/04/04 04:45:06;;;;;;;16.50;13.40;;;;;;;5.97;77.35;100255.08;103683;1295;23690;-62
2024/04/04 04:47:32;;;;;;;21.40;12.40;;;;;;;5.95;78.11;100252.86;103695;1304;22811;-62
2024/04/04 04:49:57;;;;;;;15.80;12.90;;;;;;;5.92;78.03;100251.16;103713;1304;22566;-62
2024/04/04 04:52:22;;;;;;;18.90;13.80;;;;;;;5.91;78.77;100249.61;103714;1291;24274;-64
2024/04/04 04:54:48;;;;;;;21.00;14.50;;;;;;;5.90;77.43;100250.98;103737;1307;24288;-62
2024/04/04 04:57:13;;;;;;;17.80;14.10;;;;;;;5.91;77.47;100252.87;103689;1301;22700;-62
2024/04/04 04:59:38;;;;;;;21.00;15.00;;;;;;;5.94;80.14;100253.71;103750;1307;26617;-63
2024/04/04 05:02:04;;;;;;;19.70;13.90;;;;;;;5.97;78.71;100253.36;103796;1288;22684;-62
2024/04/04 05:04:29;;;;;;;17.60;14.80;;;;;;;6.01;78.16;100254.05;103801;1300;22601;-70
2024/04/04 05:06:55;;;;;;;20.00;15.50;;;;;;;6.03;78.57;100250.27;103338;1298;22601;-65
2024/04/04 05:09:20;;;;;;;18.50;15.40;;;;;;;6.08;78.54;100249.05;103397;1311;22588;-65
2024/04/04 05:11:45;;;;;;;20.60;15.60;;;;;;;6.14;78.24;100250.40;103644;1304;22563;-65
2024/04/04 05:14:12;;;;;;;19.50;16.30;;;;;;;6.20;77.86;100252.61;103671;1302;26661;-65
2024/04/04 05:16:39;;;;;;;24.40;18.00;;;;;;;6.25;77.99;100247.23;103677;1309;25309;-64
2024/04/04 05:19:04;;;;;;;22.60;16.80;;;;;;;6.31;77.82;100243.63;103588;1309;22561;-65
2024/04/04 05:21:30;;;;;;;25.30;17.70;;;;;;;6.35;78.15;100242.59;103607;1304;22556;-65
2024/04/04 05:23:55;;;;;;;21.40;16.90;;;;;;;6.38;78.03;100246.16;103620;1292;24273;-64
2024/04/04 05:26:21;;;;;;;23.90;17.50;;;;;;;6.39;78.04;100243.41;103404;1305;22588;-65
2024/04/04 05:28:51;;;;;;;20.60;16.10;;;;;;;6.41;78.39;100244.95;103753;1309;24284;-65
2024/04/04 05:31:16;;;;;;;23.90;17.20;;;;;;;6.48;80.46;100251.42;103706;1303;22571;-64
2024/04/04 05:33:42;;;;;;;25.60;18.60;;;;;;;6.58;79.52;100248.29;103749;1291;22643;-65
2024/04/04 05:36:07;;;;;;;24.40;18.90;;;;;;;6.73;79.41;100244.08;103794;1305;22575;-63
2024/04/04 05:38:32;;;;;;;27.20;20.00;;;;;;;6.88;80.15;100241.73;103481;1309;22940;-65
2024/04/04 05:41:04;;;;;;;26.10;18.80;;;;;;;7.02;80.20;100242.66;103499;1307;22607;-64
2024/04/04 05:43:29;;;;;;;25.50;19.20;;;;;;;7.15;80.31;100244.45;103673;1295;23084;-64
2024/04/04 05:45:54;;;;;;;24.40;19.20;;;;;;;7.29;81.18;100253.06;103986;1307;22933;-63
2024/04/04 05:48:20;;;;;;;20.80;17.90;;;;;;;7.43;80.61;100256.35;104125;1307;22560;-63
2024/04/04 05:50:45;;;;;;;22.70;16.40;;;;;;;7.55;82.28;100258.14;103729;1298;22557;-65
2024/04/04 05:53:11;;;;;;;20.40;17.70;;;;;;;7.65;81.88;100260.44;103676;1289;24254;-65
2024/04/04 05:55:36;;;;;;;25.70;18.20;;;;;;;7.71;81.58;100257.11;103839;1309;25231;-65
2024/04/04 05:58:02;;;;;;;24.10;16.90;;;;;;;7.73;81.44;100256.24;103843;1301;22562;-63
2024/04/04 06:00:27;;;;;;;23.50;17.80;;;;;;;7.78;81.05;100255.32;103721;1299;22875;-64
2024/04/04 06:02:52;;;;;;;21.70;17.40;;;;;;;7.86;80.59;100253.16;103758;1302;22495;-64
2024/04/04 06:05:18;;;;;;;25.50;18.80;;;;;;;8.00;80.64;100256.44;103677;1294;22557;-64
2024/04/04 06:07:43;;;;;;;22.50;17.60;;;;;;;8.13;81.31;100254.75;103781;1301;25400;-65
2024/04/04 06:10:09;;;;;;;19.50;17.00;;;;;;;8.26;81.34;100251.34;103696;1310;25443;-64
2024/04/04 06:12:35;;;;;;;22.00;17.00;;;;;;;8.39;80.96;100251.85;104339;1304;22704;-62
2024/04/04 06:15:01;;;;;;;20.90;17.60;;;;;;;8.48;81.35;100244.52;105168;1303;22863;-62
2024/04/04 06:17:26;;;;;;;22.50;17.30;;;;;;;8.65;81.18;100242.91;105423;1302;25421;-61
2024/04/04 06:19:52;;;;;;;24.20;17.90;;;;;;;8.88;82.50;100242.04;105376;1307;22517;-60
2024/04/04 06:22:17;;;;;;;20.80;16.10;;;;;;;9.03;81.57;100240.61;105165;1305;22574;-59
2024/04/04 06:24:44;;;;;;;19.20;15.40;;;;;;;9.21;81.45;100243.91;104983;1295;25269;-59
2024/04/04 06:27:10;;;;;;;19.30;14.70;;;;;;;9.42;81.37;100252.49;104846;1309;22604;-63
2024/04/04 06:29:36;;;;;;;18.80;15.20;;;;;;;9.69;81.86;100254.95;104913;1309;23513;-63
2024/04/04 06:32:04;;;;;;;17.30;13.60;;;;;;;9.91;82.49;100254.02;105087;1304;22558;-60
2024/04/04 06:34:30;;;;;;;14.70;12.80;;;;;;;10.10;82.14;100251.74;105596;1291;22569;-63
2024/04/04 06:36:56;;;;;;;16.60;14.20;;;;;;;10.23;82.35;100254.09;104764;1304;22952;-59
2024/04/04 06:39:21;;;;;;;17.40;13.90;;;;;;;10.28;82.28;100254.69;104569;1307;23974;-59
2024/04/04 06:41:47;;;;;;;13.00;11.00;;;;;;;10.32;81.89;100253.39;105005;1304;24214;-62
2024/04/04 06:44:12;;;;;;;14.90;12.10;;;;;;;10.37;82.56;100260.52;104769;1295;22578;-59
2024/04/04 06:46:37;;;;;;;17.30;12.20;;;;;;;10.33;82.65;100261.30;104775;1307;23412;-60
2024/04/04 06:49:04;;;;;;;15.90;12.60;;;;;;;10.29;82.55;100256.90;104791;1307;24102;-60
2024/04/04 06:51:31;;;;;;;14.60;13.10;;;;;;;10.25;82.97;100257.15;105257;1309;22540;-58
2024/04/04 06:53:57;;;;;;;;;;;;;;;10.19;82.83;100254.15;104973;1295;22540;-60
2024/04/04 06:56:22;;;;;;;16.80;12.70;;;;;;;10.18;82.49;100254.16;104915;1292;26317;-59
2024/04/04 06:58:48;;;;;;;16.60;13.00;;;;;;;10.19;82.50;100253.30;104676;1302;22535;-62
2024/04/04 07:01:13;;;;;;;16.30;13.30;;;;;;;10.15;82.49;100252.83;104835;1304;22601;-61
2024/04/04 07:03:39;;;;;;;16.80;12.40;;;;;;;10.13;82.83;100255.30;104815;1309;22562;-58
2024/04/04 07:06:04;;;;;;;16.50;14.20;;;;;;;10.12;82.94;100254.79;104932;1291;23186;-58
2024/04/04 07:08:30;;;;;;;17.90;13.80;;;;;;;10.11;82.83;100255.15;104696;1307;22684;-62
2024/04/04 07:10:59;;;;;;;16.00;14.00;;;;;;;10.15;82.15;100258.17;105695;1308;24308;-59
2024/04/04 07:13:25;;;;;;;14.60;13.00;;;;;;;10.18;82.26;100261.55;104218;1309;22669;-58
2024/04/04 07:16:01;;;;;;;21.10;13.30;;;;;;;10.19;82.68;100264.48;104455;1312;24376;-63
2024/04/04 07:18:28;;;;;;;;;;;;;;;10.24;83.01;100267.86;104990;1310;23260;-62
2024/04/04 07:20:53;;;;;;;14.50;12.00;;;;;;;10.32;82.44;100269.59;104399;1310;22563;-58
2024/04/04 07:23:20;;;;;;;15.00;13.20;;;;;;;10.39;83.53;100271.34;104554;1303;22608;-59
2024/04/04 07:25:51;;;;;;;20.40;13.00;;;;;;;10.43;83.94;100271.22;104684;1308;22878;-60
2024/04/04 07:28:18;;;;;;;15.10;12.40;;;;;;;10.54;83.88;100264.61;104596;1299;22597;-61
2024/04/04 07:30:44;;;;;;;;;;;;;;;10.67;84.31;100264.33;104570;1307;22651;-60
2024/04/04 07:33:09;;;;;;;19.60;12.00;;;;;;;10.77;85.02;100267.55;104740;1309;22636;-60
2024/04/04 07:35:35;;;;;;;13.70;11.30;;;;;;;10.84;84.41;100272.40;104653;1305;22583;-59
2024/04/04 07:38:02;;;;;;;13.00;11.10;;;;;;;10.99;84.85;100274.62;104260;1308;22923;-61
2024/04/04 07:40:28;;;;;;;16.80;12.30;;;;;;;11.15;84.73;100269.08;104239;1313;22574;-59
2024/04/04 07:42:55;;;;;;;15.40;11.20;;;;;;;11.32;84.49;100268.67;104240;1313;22872;-59
2024/04/04 07:45:20;;;;;;;12.40;11.10;;;;;;;11.43;84.59;100273.38;104865;1297;22516;-59
2024/04/04 07:47:46;;;;;;;14.50;12.00;;;;;;;11.49;84.37;100268.56;104439;1308;24291;-58
2024/04/04 07:50:14;;;;;;;14.00;10.20;;;;;;;11.54;84.69;100270.14;104283;1308;22862;-59
2024/04/04 07:52:40;;;;;;;16.30;11.30;;;;;;;11.59;84.50;100263.45;104720;1309;22590;-58
2024/04/04 07:55:06;;;;;;;11.60;9.60;;;;;;;11.74;84.46;100259.80;104646;1297;22571;-61
2024/04/04 07:57:31;;;;;;;12.50;11.10;;;;;;;11.93;83.80;100261.55;104761;1305;22611;-59
2024/04/04 07:59:56;;;;;;;11.00;9.80;;;;;;;12.12;83.28;100267.58;104551;1315;23331;-62
2024/04/04 08:02:23;;;;;;;11.40;9.80;;;;;;;12.23;83.32;100268.12;104715;1307;22563;-59
2024/04/04 08:04:49;;;;;;;;;;;;;;;12.35;83.08;100269.51;104752;1300;22668;-60
2024/04/04 08:07:15;;;;;;;9.60;8.50;;;;;;;12.19;82.90;100261.33;104305;1305;22949;-61
2024/04/04 08:09:40;;;;;;;10.50;8.80;;;;;;;12.14;83.29;100260.95;104403;1311;22587;-59
2024/04/04 08:12:07;;;;;;;9.80;8.80;;;;;;;12.26;83.40;100260.96;104033;1310;22601;-60
2024/04/04 08:14:33;;;;;;;;;;;;;;;12.48;82.96;100265.81;104277;1313;22622;-61
2024/04/04 08:16:59;;;;;;;9.80;8.00;;;;;;;12.59;82.32;100272.40;104410;1304;22495;-60
2024/04/04 08:19:24;;;;;;;9.20;7.00;;;;;;;12.53;82.19;100272.59;104581;1308;22519;-59
2024/04/04 08:21:50;;;;;;;7.60;6.80;;;;;;;12.45;82.48;100273.02;104599;1313;22568;-58
2024/04/04 08:24:15;;;;;;;7.80;6.70;;;;;;;12.26;82.92;100276.69;104568;1314;22561;-60
2024/04/04 08:26:41;;;;;;;7.50;6.70;;;;;;;12.08;84.41;100279.61;104835;1307;22722;-62
2024/04/04 08:29:06;;;;;;;8.10;7.20;;;;;;;12.12;83.52;100276.03;105002;1309;22676;-60
2024/04/04 08:31:34;;;;;;;9.80;6.50;;;;;;;12.13;83.35;100282.93;104887;1308;22643;-60
2024/04/04 08:33:59;;;;;;;7.00;6.30;;;;;;;12.01;83.93;100278.42;103177;1300;22617;-61
2024/04/04 08:36:25;;;;;;;9.30;6.70;;;;;;;11.91;83.98;100280.79;103198;1292;22560;-61
2024/04/04 08:38:50;;;;;;;15.40;7.20;;;;;;;11.88;84.38;100277.59;103241;1313;22682;-61
2024/04/04 08:41:18;;;;;;;6.60;5.90;;;;;;;11.87;84.62;100282.98;103275;1307;25331;-61
2024/04/04 08:43:45;;;;;;;6.70;6.10;;;;;;;11.84;85.42;100283.23;104688;1304;22591;-59
2024/04/04 08:46:11;;;;;;;7.60;5.80;;;;;;;11.83;85.74;100279.45;104777;1294;22576;-58
2024/04/04 08:48:37;;;;;;;7.20;5.70;;;;;;;11.87;85.50;100280.02;105086;1295;22606;-60
2024/04/04 08:51:04;;;;;;;8.60;6.20;;;;;;;11.96;85.27;100280.98;105051;1300;24259;-59
2024/04/04 08:53:31;;;;;;;;;;;;;;;12.16;85.05;100283.02;104704;1314;22542;-63
2024/04/04 08:55:59;;;;;;;5.20;4.70;;;;;;;12.78;84.22;100278.92;103533;1310;22558;-62
2024/04/04 08:58:25;;;;;;;5.20;4.70;;;;;;;13.51;83.17;100276.09;103050;1307;22564;-63
2024/04/04 09:00:52;;;;;;;7.30;4.80;;;;;;;14.28;79.94;100271.42;103234;1314;22586;-62
2024/04/04 09:03:18;;;;;;;5.20;4.40;;;;;;;14.81;78.48;100269.09;106918;1315;22640;-61
2024/04/04 09:05:49;;;;;;;5.00;4.60;;;;;;;14.98;77.73;100276.92;103960;1313;23013;-61
2024/04/04 09:08:16;;;;;;;4.80;4.40;;;;;;;14.66;74.29;100276.08;104452;1297;23754;-61
2024/04/04 09:10:42;;;;;;;4.90;4.30;;;;;;;14.32;75.57;100275.46;104226;1311;22591;-61
2024/04/04 09:13:10;;;;;;;5.10;4.60;;;;;;;13.99;76.06;100275.62;105123;1309;22677;-61
2024/04/04 09:15:37;;;;;;;5.50;4.80;;;;;;;13.80;76.65;100273.69;104276;1314;22557;-61
2024/04/04 09:18:05;;;;;;;5.00;4.40;;;;;;;13.61;76.68;100278.14;104387;1297;23093;-61
2024/04/04 09:20:35;;;;;;;4.80;4.40;;;;;;;13.72;77.23;100279.33;104178;1314;22563;-62
2024/04/04 09:23:01;;;;;;;6.60;4.40;;;;;;;14.29;76.99;100274.16;104794;1310;22554;-62
2024/04/04 09:25:28;;;;;;;6.60;3.80;;;;;;;14.54;74.58;100269.07;104596;1311;25167;-62
2024/04/04 09:27:54;;;;;;;5.20;3.90;;;;;;;14.53;74.79;100270.84;105178;1295;22531;-62
2024/04/04 09:30:24;;;;;;;4.30;3.80;;;;;;;14.30;74.92;100273.45;104367;1300;22761;-62
2024/04/04 09:32:57;;;;;;;4.70;4.30;;;;;;;14.15;75.89;100278.84;104497;1308;24299;-62
2024/04/04 09:35:23;;;;;;;5.10;4.20;;;;;;;14.01;75.95;100280.23;104456;1315;22656;-62
2024/04/04 09:37:50;;;;;;;4.40;4.00;;;;;;;14.00;76.81;100284.42;104082;1295;22509;-61
2024/04/04 09:40:16;;;;;;;;;;;;;;;13.98;76.12;100280.69;103944;1307;22558;-63
2024/04/04 09:42:44;;;;;;;4.90;4.30;;;;;;;13.90;76.73;100278.73;104227;1311;25468;-62
2024/04/04 09:45:11;;;;;;;5.30;4.90;;;;;;;13.86;75.62;100284.39;104840;1313;22842;-62
2024/04/04 09:47:47;;;;;;;4.60;4.20;;;;;;;13.81;76.04;100288.01;105127;1291;22677;-62
2024/04/04 09:50:16;;;;;;;4.10;3.80;;;;;;;13.65;76.22;100289.28;104917;1307;22726;-62
2024/04/04 09:52:41;;;;;;;5.00;4.50;;;;;;;13.61;76.62;100289.75;104575;1308;22957;-62
2024/04/04 09:55:09;;;;;;;5.10;4.60;;;;;;;13.66;76.50;100294.26;104497;1303;22577;-62
2024/04/04 09:57:41;;;;;;;5.80;3.80;;;;;;;13.82;76.73;100293.73;104431;1302;23037;-62
2024/04/04 10:00:17;;;;;;;4.60;4.20;;;;;;;14.13;75.91;100292.59;104794;1307;23483;-62
2024/04/04 10:02:56;;;;;;;4.20;3.40;;;;;;;14.85;73.44;100293.56;105658;1315;22990;-62
2024/04/04 10:05:31;;;;;;;4.20;3.90;;;;;;;15.20;72.60;100291.11;105538;1308;22510;-62
2024/04/04 10:08:15;;;;;;;3.80;3.40;;;;;;;15.31;71.44;100290.65;105390;1291;22545;-62
2024/04/04 10:10:42;;;;;;;3.50;3.20;;;;;;;15.09;70.32;100292.07;105034;1309;22509;-62
2024/04/04 10:13:12;;;;;;;5.40;3.20;;;;;;;14.96;71.16;100289.86;105575;1308;22902;-62
2024/04/04 10:15:50;;;;;;;5.50;3.40;;;;;;;15.11;70.55;100285.92;105638;1308;22586;-62
2024/04/04 10:18:20;;;;;;;4.50;3.10;;;;;;;15.40;69.84;100287.84;105377;1291;22578;-62
2024/04/04 10:20:57;;;;;;;3.20;2.60;;;;;;;15.59;67.09;100286.71;105601;1314;22750;-62
2024/04/04 10:23:25;;;;;;;4.30;2.50;;;;;;;15.37;68.33;100281.02;105278;1310;22823;-62
2024/04/04 10:25:52;;;;;;;4.70;2.80;;;;;;;15.31;68.60;100285.28;105566;1314;23879;-62
2024/04/04 10:28:20;;;;;;;5.00;3.00;;;;;;;15.09;67.74;100285.87;105186;1311;22590;-62
2024/04/04 10:30:49;;;;;;;3.20;3.00;;;;;;;15.64;67.79;100279.20;104467;1316;22907;-62
2024/04/04 10:33:17;;;;;;;2.90;2.60;;;;;;;17.49;65.22;100285.11;104772;1315;22571;-62
2024/04/04 10:35:43;;;;;;;2.80;2.20;;;;;;;18.29;63.84;100281.98;104427;1309;22597;-62
2024/04/04 10:38:13;;;;;;;3.50;2.00;;;;;;;18.57;59.17;100274.75;104318;1309;22979;-62
2024/04/04 10:40:40;;;;;;;3.00;2.20;;;;;;;18.35;59.00;100269.63;104751;1307;22530;-62
2024/04/04 10:43:10;;;;;;;3.70;2.90;;;;;;;18.42;58.27;100264.05;105350;1310;22858;-61
2024/04/04 10:45:48;;;;;;;3.20;2.50;;;;;;;18.79;60.93;100268.29;105669;1303;22528;-62
2024/04/04 10:48:13;;;;;;;2.20;1.90;;;;;;;18.63;58.63;100267.60;105245;1298;22620;-63
2024/04/04 10:50:39;;;;;;;2.20;2.00;;;;;;;18.05;60.02;100270.52;104923;1297;26243;-62
2024/04/04 10:53:07;;;;;;;2.30;2.10;;;;;;;17.86;61.12;100267.88;104140;1314;23665;-62
2024/04/04 10:55:34;;;;;;;2.30;1.70;;;;;;;18.23;60.87;100255.45;106858;1300;22766;-63
2024/04/04 10:58:00;;;;;;;;;;;;;;;18.42;58.32;100250.39;106987;1310;22941;-63
2024/04/04 11:00:32;;;;;;;3.90;2.30;;;;;;;18.11;56.99;100251.21;106180;1296;22304;-62
2024/04/04 11:03:01;;;;;;;2.40;1.80;;;;;;;17.63;59.31;100254.23;106815;1308;22414;-62
2024/04/04 11:05:26;;;;;;;2.50;1.70;;;;;;;18.13;59.93;100250.08;106975;1314;23347;-63
2024/04/04 11:08:01;;;;;;;2.50;2.10;;;;;;;18.79;57.96;100256.23;106910;1314;22634;-62
2024/04/04 11:15:34;;;;;;;1.90;1.60;;;;;;;20.81;52.75;100260.01;106874;1311;83207;-60
2024/04/04 11:17:59;;;;;;;2.90;1.60;;;;;;;21.56;50.96;100256.96;106547;1313;142371;-60
2024/04/04 11:20:26;;;;;;;2.40;1.50;;;;;;;22.21;52.19;100258.66;106569;1309;22581;-60
2024/04/04 11:22:52;;;;;;;2.60;2.20;;;;;;;21.49;48.79;100263.00;106534;1296;22931;-62
2024/04/04 11:25:17;;;;;;;3.00;1.60;;;;;;;20.52;50.28;100262.21;106602;1309;22629;-62
2024/04/04 11:27:43;;;;;;;3.10;1.70;;;;;;;19.81;55.08;100259.59;106661;1315;22242;-62
2024/04/04 11:30:10;;;;;;;2.40;1.70;;;;;;;19.17;53.16;100253.20;106654;1310;22624;-62
2024/04/04 11:32:36;;;;;;;1.90;1.20;;;;;;;18.36;53.95;100262.79;106556;1299;22588;-62
2024/04/04 11:35:08;;;;;;;2.00;1.80;;;;;;;17.68;53.71;100264.98;106660;1312;22624;-62
2024/04/04 11:37:34;;;;;;;1.80;1.70;;;;;;;17.24;55.87;100257.78;106740;1312;23149;-61
2024/04/04 11:39:59;;;;;;;2.70;1.90;;;;;;;16.90;55.99;100262.59;106662;1313;22899;-62
2024/04/04 11:42:26;;;;;;;3.50;1.50;;;;;;;16.64;57.03;100261.19;106682;1296;22651;-62
2024/04/04 11:44:53;;;;;;;1.60;1.50;;;;;;;16.55;57.19;100261.80;106154;1309;22651;-62
2024/04/04 11:47:18;;;;;;;3.00;1.50;;;;;;;16.57;56.10;100256.13;105823;1309;26539;-62
2024/04/04 11:49:44;;;;;;;1.60;1.40;;;;;;;17.06;56.30;100258.30;105333;1309;23886;-62
2024/04/04 11:52:09;;;;;;;1.80;1.50;;;;;;;17.59;53.49;100251.81;105361;1297;22774;-62
2024/04/04 11:54:35;;;;;;;4.50;1.90;;;;;;;18.68;53.36;100246.84;106307;1315;22690;-61
2024/04/04 11:57:01;;;;;;;2.20;1.50;;;;;;;19.99;52.13;100248.31;105857;1312;22511;-62
2024/04/04 11:59:27;;;;;;;3.30;1.10;;;;;;;20.97;50.16;100242.62;105208;1309;23276;-62
2024/04/04 12:01:54;;;;;;;1.50;1.40;;;;;;;21.55;47.19;100248.48;106524;1297;22539;-62
2024/04/04 12:04:22;;;;;;;1.90;1.20;;;;;;;21.46;46.69;100246.05;106537;1310;22708;-62
2024/04/04 12:06:50;;;;;;;1.60;1.10;;;;;;;22.15;45.51;100242.73;106239;1309;22605;-62
2024/04/04 12:09:16;;;;;;;2.10;1.60;;;;;;;23.02;45.39;100229.94;106378;1315;22871;-62
2024/04/04 12:11:43;;;;;;;7.00;1.30;;;;;;;23.57;41.92;100228.60;105130;1295;24036;-63
2024/04/04 12:14:09;;;;;;;2.50;1.40;;;;;;;24.13;44.92;100221.55;106213;1308;22455;-61
2024/04/04 12:16:35;;;;;;;1.10;1.00;;;;;;;24.28;42.30;100220.41;106869;1312;22577;-62
2024/04/04 12:21:45;;;;;;;3.60;1.20;;;;;;;21.27;44.00;100222.45;102945;1300;23254;-61
2024/04/04 12:24:12;;;;;;;1.20;1.10;;;;;;;20.24;46.93;100218.77;103097;1300;24426;-61
2024/04/04 12:26:37;;;;;;;;;;;;;;;20.03;47.27;100217.59;103038;1300;25355;-61
2024/04/04 12:29:03;;;;;;;3.50;1.60;;;;;;;21.25;45.30;100215.20;103122;1312;22573;-61
2024/04/04 12:31:28;;;;;;;4.30;2.20;;;;;;;21.71;45.87;100206.11;103106;1308;24312;-62
2024/04/04 12:33:54;;;;;;;2.70;1.60;;;;;;;21.13;46.55;100206.36;102948;1299;25003;-62